Britton Municipal Airport


Codes: KBTN/
Name: Britton Municipal Airport
City: Britton
Country: United States
Elevation: 1318 ft.

Photos at Britton Municipal Airport


   Photos courtesy of SpottingLog. You can add your own sightings and photos by signing up for a free trial today.



No photos found.

Weather at Britton Municipal Airport


Time (UTC)DescriptionTempratureWindCloud coverageVisibilityPressureHumidity
23-May-2024 21:00Overcast Clouds21°C9 mph, S98%10000m1003hPa56%
24-May-2024 00:00Moderate Rain19°C11 mph, SE99%6452m1002hPa74%
24-May-2024 03:00Light Rain18°C20 mph, S100%10000m1000hPa78%
24-May-2024 06:00Light Rain16°C16 mph, S100%10000m1000hPa90%
24-May-2024 09:00Light Rain13°C7 mph, S100%10000m998hPa93%
24-May-2024 12:00Light Rain12°C7 mph, S100%8865m997hPa93%
24-May-2024 15:00Light Rain12°C16 mph, SW100%10000m997hPa74%
24-May-2024 18:00Light Rain13°C22 mph, W68%10000m999hPa74%
24-May-2024 21:00Light Rain8°C22 mph, NW98%10000m1005hPa69%
25-May-2024 00:00Overcast Clouds11°C18 mph, NW97%10000m1006hPa67%
25-May-2024 03:00Clear Sky7°C4 mph, W7%10000m1008hPa78%
25-May-2024 06:00Clear Sky6°C4 mph, S5%10000m1008hPa83%
25-May-2024 09:00Clear Sky6°C7 mph, S10%10000m1008hPa84%
25-May-2024 12:00Clear Sky8°C4 mph, SE7%10000m1007hPa82%
25-May-2024 15:00Broken Clouds15°C13 mph, SW83%10000m1005hPa65%
25-May-2024 18:00Overcast Clouds16°C13 mph, SW91%10000m1005hPa68%
25-May-2024 21:00Light Rain17°C16 mph, SW100%10000m1004hPa69%
26-May-2024 00:00Light Rain14°C13 mph, SE100%10000m1004hPa85%
26-May-2024 03:00Light Rain14°C16 mph, SE100%10000m1003hPa92%
26-May-2024 06:00Moderate Rain13°C11 mph, E100%8848m1003hPa95%
26-May-2024 09:00Light Rain12°C11 mph, NE100%10000m1002hPa96%
26-May-2024 12:00Overcast Clouds12°C7 mph, N100%0m1003hPa98%
26-May-2024 15:00Overcast Clouds15°C13 mph, NE100%10000m1003hPa87%
26-May-2024 18:00Light Rain19°C13 mph, NE90%10000m1003hPa65%
26-May-2024 21:00Light Rain19°C13 mph, NE66%10000m1003hPa63%
27-May-2024 00:00Scattered Clouds19°C11 mph, N33%10000m1004hPa69%
27-May-2024 03:00Light Rain14°C7 mph, NE12%10000m1007hPa90%
27-May-2024 06:00Few Clouds12°C2 mph, N11%10000m1008hPa95%
27-May-2024 09:00Clear Sky10°C7 mph, N5%10000m1010hPa96%
27-May-2024 12:00Few Clouds10°C7 mph, N12%10000m1013hPa93%
27-May-2024 15:00Broken Clouds14°C9 mph, N69%10000m1014hPa75%
27-May-2024 18:00Light Rain12°C11 mph, NW85%8238m1016hPa87%
27-May-2024 21:00Light Rain16°C9 mph, SW96%10000m1013hPa69%
28-May-2024 00:00Broken Clouds17°C11 mph, SW52%10000m1012hPa71%
28-May-2024 03:00Light Rain12°C7 mph, SW24%10000m1012hPa93%
28-May-2024 06:00Light Rain10°C11 mph, SW59%10000m1014hPa93%
28-May-2024 09:00Clear Sky7°C7 mph, NW9%10000m1015hPa94%
28-May-2024 12:00Clear Sky7°C11 mph, NW6%10000m1017hPa91%
28-May-2024 15:00Scattered Clouds11°C16 mph, NW26%10000m1018hPa71%
28-May-2024 18:00Light Rain11°C16 mph, NW59%10000m1019hPa67%